Terminal Aerodrome Forecast
Issued by NWS Brownsville, TX

Home | Current Version | Previous Version | Text Only | Print | Product List | Glossary On
Versions: 1 2 3 4 5 6 7 8 9 10 11 12 13 14 15 16 17 18 19
000
FTUS44 KBRO 041735
TAFMFE
TAF
KMFE 041735Z 0418/0518 01007KT P6SM SKC
     FM042100 04007KT P6SM SKC
     FM050000 09009KT P6SM SKC
     FM050300 12006KT P6SM SKC
     FM051500 19008KT P6SM SKC=

USA.gov is the U.S. government's official web portal to all federal, state and local government web resources and services.